Time;durP1;ratioP1;P1;durP2;ratioP2;P2;SDS_P1;SDS_P2;PMS_P1;PMS_P2;Temp;Humidity;BMP_temperature;BMP_pressure;BME280_temperature;BME280_humidity;BME280_pressure;Samples;Min_cycle;Max_cycle;Signal;HPM_P1;HPM_P2
2022/02/22 00:01:08;;;;;;;3.03;1.50;;;4.70;90.30;;;;;;6196173;23;20523;-83
2022/02/22 00:03:36;;;;;;;2.87;1.40;;;4.70;90.60;;;;;;6194986;23;20246;-84
2022/02/22 00:06:03;;;;;;;4.33;1.30;;;4.70;90.10;;;;;;6196670;23;20181;-85
2022/02/22 00:08:32;;;;;;;4.20;1.47;;;4.70;89.90;;;;;;6194597;23;20204;-83
2022/02/22 00:10:59;;;;;;;2.70;1.00;;;4.60;90.20;;;;;;6197189;23;20186;-83
2022/02/22 00:13:25;;;;;;;5.37;1.63;;;4.50;90.10;;;;;;6196846;23;20225;-82
2022/02/22 00:15:56;;;;;;;5.60;1.30;;;4.50;90.00;;;;;;6199968;23;20209;-82
2022/02/22 00:18:22;;;;;;;6.27;1.47;;;4.40;90.00;;;;;;6199236;23;20529;-82
2022/02/22 00:20:49;;;;;;;3.70;1.73;;;4.40;90.20;;;;;;6197851;23;20457;-83
2022/02/22 00:23:16;;;;;;;3.33;1.10;;;4.40;90.40;;;;;;6198772;23;20202;-83
2022/02/22 00:25:44;;;;;;;2.83;1.20;;;4.30;90.60;;;;;;6199949;23;20170;-82
2022/02/22 00:28:11;;;;;;;3.77;1.50;;;4.30;90.70;;;;;;6199260;23;20226;-82
2022/02/22 00:30:38;;;;;;;2.57;1.40;;;4.20;91.00;;;;;;6200818;23;20174;-82
2022/02/22 00:33:05;;;;;;;2.73;1.33;;;4.20;91.10;;;;;;6198468;23;20278;-82
2022/02/22 00:35:32;;;;;;;2.67;1.30;;;4.10;91.30;;;;;;6198338;23;20183;-82
2022/02/22 00:37:59;;;;;;;4.73;1.40;;;4.10;91.90;;;;;;6204312;23;20225;-83
2022/02/22 00:40:26;;;;;;;2.63;1.57;;;4.00;91.80;;;;;;6206955;23;20262;-85
2022/02/22 00:42:54;;;;;;;2.87;1.40;;;3.90;92.20;;;;;;6198963;23;20209;-82
2022/02/22 00:45:21;;;;;;;3.87;1.30;;;3.90;92.50;;;;;;6197891;23;20214;-82
2022/02/22 00:47:48;;;;;;;1.93;1.30;;;3.90;92.70;;;;;;6197481;23;20690;-83
2022/02/22 00:50:15;;;;;;;2.10;1.30;;;3.90;93.00;;;;;;6197685;23;20202;-83
2022/02/22 00:52:42;;;;;;;3.07;1.30;;;4.10;92.90;;;;;;6197646;23;20975;-84
2022/02/22 00:55:10;;;;;;;2.23;1.20;;;4.20;93.00;;;;;;6197688;23;20175;-82
2022/02/22 00:57:37;;;;;;;3.33;1.40;;;4.20;92.90;;;;;;6196290;23;20273;-82
2022/02/22 01:00:07;;;;;;;2.83;1.33;;;4.20;92.90;;;;;;6196226;23;20235;-82
2022/02/22 01:02:34;;;;;;;4.27;1.40;;;4.30;92.60;;;;;;6194858;23;20726;-82
2022/02/22 01:05:01;;;;;;;3.47;1.60;;;4.20;93.10;;;;;;6195748;23;20206;-84
2022/02/22 01:07:28;;;;;;;3.70;1.53;;;4.30;92.60;;;;;;6170608;23;20565;-82
2022/02/22 01:09:54;;;;;;;4.97;1.70;;;4.20;92.90;;;;;;6197302;23;20182;-83
2022/02/22 01:12:23;;;;;;;3.40;1.40;;;4.20;92.80;;;;;;6195170;23;20241;-83
2022/02/22 01:14:50;;;;;;;4.83;1.60;;;4.30;92.60;;;;;;6195894;23;20162;-82
2022/02/22 01:17:18;;;;;;;4.70;1.47;;;4.30;92.40;;;;;;6196552;23;20586;-83
2022/02/22 01:19:45;;;;;;;3.47;1.50;;;4.20;92.70;;;;;;6192834;23;20178;-83
2022/02/22 01:22:13;;;;;;;4.93;1.57;;;4.20;92.60;;;;;;6195320;23;20212;-83
2022/02/22 01:24:40;;;;;;;3.87;1.23;;;4.10;92.60;;;;;;6195926;23;20209;-83
2022/02/22 01:27:07;;;;;;;3.73;1.30;;;4.10;92.60;;;;;;6197348;23;20199;-83
2022/02/22 01:29:35;;;;;;;5.23;1.43;;;4.10;92.40;;;;;;6197157;23;20521;-83
2022/02/22 01:32:01;;;;;;;4.03;1.37;;;4.10;92.20;;;;;;6197919;23;20198;-82
2022/02/22 01:34:30;;;;;;;4.67;1.60;;;4.10;92.30;;;;;;6198468;23;20170;-85
2022/02/22 01:36:56;;;;;;;3.93;1.50;;;4.00;92.40;;;;;;6196646;23;20206;-82
2022/02/22 01:39:24;;;;;;;4.10;1.70;;;4.10;92.50;;;;;;6197033;23;20178;-82
2022/02/22 01:41:51;;;;;;;3.27;1.50;;;4.10;92.40;;;;;;6196189;23;20246;-82
2022/02/22 01:44:24;;;;;;;3.90;1.53;;;4.20;92.00;;;;;;6197857;23;20194;-84
2022/02/22 01:46:56;;;;;;;3.40;1.37;;;4.30;91.70;;;;;;6198406;23;20246;-82
2022/02/22 01:49:23;;;;;;;1.63;1.30;;;4.30;91.60;;;;;;6198485;23;20249;-83
2022/02/22 01:51:52;;;;;;;5.17;1.30;;;4.30;91.70;;;;;;6199505;23;20178;-83
2022/02/22 01:54:20;;;;;;;5.53;1.70;;;4.30;91.70;;;;;;6171740;23;20217;-83
2022/02/22 01:56:48;;;;;;;3.03;1.43;;;4.30;91.60;;;;;;6197886;23;20254;-83
2022/02/22 01:59:15;;;;;;;3.80;1.30;;;4.30;91.60;;;;;;6199635;23;20217;-82
2022/02/22 02:01:42;;;;;;;3.93;1.60;;;4.40;91.50;;;;;;6200167;23;20245;-82
2022/02/22 02:04:09;;;;;;;4.07;1.50;;;4.40;91.70;;;;;;6201286;23;20792;-83
2022/02/22 02:06:37;;;;;;;6.87;1.77;;;4.40;91.50;;;;;;6200001;23;20178;-82
2022/02/22 02:09:07;;;;;;;2.80;1.50;;;4.40;91.30;;;;;;6197704;23;20201;-82
2022/02/22 02:11:46;;;;;;;3.77;1.50;;;4.40;91.30;;;;;;6172119;23;20181;-82
2022/02/22 02:14:13;;;;;;;3.43;1.70;;;4.40;91.60;;;;;;6197801;23;20174;-82
2022/02/22 02:16:40;;;;;;;2.87;1.40;;;4.40;91.70;;;;;;6196867;23;20241;-82
2022/02/22 02:19:09;;;;;;;4.10;2.03;;;4.40;91.60;;;;;;6195375;23;20496;-82
2022/02/22 02:21:38;;;;;;;2.27;1.50;;;4.50;91.50;;;;;;6196110;23;20226;-83
2022/02/22 02:24:12;;;;;;;3.43;1.60;;;4.60;91.20;;;;;;6197567;23;20209;-83
2022/02/22 02:26:39;;;;;;;5.23;1.90;;;4.50;91.50;;;;;;6197130;23;20159;-83
2022/02/22 02:29:08;;;;;;;3.47;1.70;;;4.50;91.30;;;;;;6199074;23;20179;-82
2022/02/22 02:31:36;;;;;;;6.60;1.80;;;4.50;91.40;;;;;;6198790;23;20179;-82
2022/02/22 02:34:04;;;;;;;3.93;1.53;;;4.50;91.40;;;;;;6198226;23;20190;-83
2022/02/22 02:36:33;;;;;;;4.53;1.60;;;4.50;91.30;;;;;;6197997;23;20652;-82
2022/02/22 02:38:59;;;;;;;4.67;1.60;;;4.50;91.40;;;;;;6197137;23;20210;-82
2022/02/22 02:41:28;;;;;;;2.93;1.87;;;4.50;91.30;;;;;;6198479;23;20736;-84
2022/02/22 02:44:01;;;;;;;5.80;1.97;;;4.50;91.20;;;;;;6197984;23;20229;-83
2022/02/22 02:46:28;;;;;;;3.43;1.43;;;4.50;91.10;;;;;;6198805;23;20165;-82
2022/02/22 02:48:56;;;;;;;3.97;1.80;;;4.60;91.00;;;;;;6197414;23;20290;-82
2022/02/22 02:51:23;;;;;;;4.17;1.70;;;4.60;91.10;;;;;;6198757;23;20220;-82
2022/02/22 02:53:50;;;;;;;6.27;1.70;;;4.50;91.10;;;;;;6197640;23;20245;-84
2022/02/22 02:56:22;;;;;;;5.03;1.60;;;4.50;91.20;;;;;;6198087;23;20175;-86
2022/02/22 02:58:51;;;;;;;3.23;1.87;;;4.50;91.30;;;;;;6195507;23;20213;-82
2022/02/22 03:01:18;;;;;;;4.67;1.40;;;4.60;91.30;;;;;;6193697;23;20206;-84
2022/02/22 03:03:45;;;;;;;4.53;1.97;;;4.60;91.30;;;;;;6192753;23;20267;-88
2022/02/22 03:06:12;;;;;;;5.27;1.57;;;4.60;91.20;;;;;;6203131;23;20194;-84
2022/02/22 03:08:39;;;;;;;5.20;1.60;;;4.70;91.20;;;;;;6200545;23;20202;-82
2022/02/22 03:11:07;;;;;;;4.73;1.97;;;4.60;91.30;;;;;;6198850;23;20238;-82
2022/02/22 03:13:34;;;;;;;5.23;2.00;;;4.50;91.70;;;;;;6196670;23;20576;-84
2022/02/22 03:16:03;;;;;;;7.27;2.00;;;4.40;92.20;;;;;;6197630;23;20206;-82
2022/02/22 03:18:30;;;;;;;4.17;1.70;;;4.40;92.30;;;;;;6195536;23;20671;-82
2022/02/22 03:20:57;;;;;;;4.50;1.60;;;4.40;92.20;;;;;;6197852;23;20175;-83
2022/02/22 03:23:24;;;;;;;4.60;2.00;;;4.40;92.30;;;;;;6198403;23;20210;-85
2022/02/22 03:25:52;;;;;;;4.73;1.53;;;4.40;92.00;;;;;;6196272;23;20500;-82
2022/02/22 03:28:19;;;;;;;6.40;1.97;;;4.40;92.30;;;;;;6196851;23;20642;-83
2022/02/22 03:30:47;;;;;;;7.60;1.57;;;4.40;92.00;;;;;;6196941;23;20174;-82
2022/02/22 03:33:17;;;;;;;3.40;1.47;;;4.50;91.80;;;;;;6195048;23;20206;-84
2022/02/22 03:35:44;;;;;;;6.20;2.00;;;4.50;91.70;;;;;;6197445;23;20247;-84
2022/02/22 03:38:14;;;;;;;3.07;1.67;;;4.50;91.90;;;;;;6197892;23;20217;-82
2022/02/22 03:40:41;;;;;;;4.67;1.47;;;4.40;91.70;;;;;;6197363;23;20178;-83
2022/02/22 03:43:08;;;;;;;4.60;1.70;;;4.40;91.90;;;;;;6195413;23;20548;-82
2022/02/22 03:45:35;;;;;;;5.30;2.00;;;4.40;91.70;;;;;;6196584;23;20174;-84
2022/02/22 03:48:03;;;;;;;4.73;1.87;;;4.40;91.10;;;;;;6171127;23;20205;-84
2022/02/22 03:50:31;;;;;;;5.63;1.73;;;4.40;91.10;;;;;;6198406;23;20181;-82
2022/02/22 03:52:58;;;;;;;3.03;1.20;;;4.40;91.00;;;;;;6196921;23;20669;-83
2022/02/22 03:55:26;;;;;;;5.83;1.60;;;4.40;90.90;;;;;;6170969;23;20179;-82
2022/02/22 03:57:53;;;;;;;4.50;1.70;;;4.50;90.80;;;;;;6196068;23;20251;-84
2022/02/22 04:00:23;;;;;;;3.63;1.60;;;4.50;90.60;;;;;;6196850;23;20179;-86
2022/02/22 04:02:50;;;;;;;4.43;1.70;;;4.50;90.20;;;;;;6197212;23;20222;-83
2022/02/22 04:05:20;;;;;;;4.77;1.60;;;4.50;90.00;;;;;;6197480;23;20254;-84
2022/02/22 04:07:49;;;;;;;5.53;1.70;;;4.50;88.80;;;;;;6196823;23;20250;-82
2022/02/22 04:10:16;;;;;;;4.93;1.40;;;4.50;88.30;;;;;;6196699;23;20203;-82
2022/02/22 04:12:43;;;;;;;6.37;1.60;;;4.60;88.70;;;;;;6194898;23;20277;-82
2022/02/22 04:15:11;;;;;;;7.30;2.07;;;4.50;88.70;;;;;;6197581;23;20179;-86
2022/02/22 04:17:38;;;;;;;6.00;1.40;;;4.40;87.90;;;;;;6198029;23;20218;-83
2022/02/22 04:20:07;;;;;;;4.47;1.63;;;4.30;88.20;;;;;;6196913;23;20257;-82
2022/02/22 04:22:36;;;;;;;5.03;1.67;;;4.10;88.40;;;;;;6196693;23;20210;-82
2022/02/22 04:25:06;;;;;;;4.77;1.63;;;4.10;88.50;;;;;;6197653;23;20234;-82
2022/02/22 04:27:33;;;;;;;5.80;1.63;;;4.20;88.50;;;;;;6196832;23;20317;-83
2022/02/22 04:30:01;;;;;;;4.40;1.60;;;4.30;88.60;;;;;;6198438;23;20181;-83
2022/02/22 04:32:28;;;;;;;4.40;1.73;;;4.30;88.50;;;;;;6197407;23;20218;-83
2022/02/22 04:34:55;;;;;;;6.03;1.70;;;4.30;88.50;;;;;;6198090;23;20201;-82
2022/02/22 04:37:28;;;;;;;3.13;1.60;;;4.30;88.80;;;;;;6196853;23;20277;-82
2022/02/22 04:39:55;;;;;;;7.23;1.90;;;4.30;89.40;;;;;;6195107;23;20234;-82
2022/02/22 04:42:23;;;;;;;4.97;1.80;;;4.30;88.60;;;;;;6193928;23;20203;-82
2022/02/22 04:44:50;;;;;;;6.10;1.80;;;4.30;89.30;;;;;;6194389;23;20174;-84
2022/02/22 04:47:17;;;;;;;5.17;1.73;;;4.20;89.30;;;;;;6193503;23;20254;-82
2022/02/22 04:49:44;;;;;;;3.43;1.50;;;4.30;89.10;;;;;;6194209;23;20198;-84
2022/02/22 04:52:11;;;;;;;6.07;1.70;;;4.30;89.70;;;;;;6195259;23;20281;-84
2022/02/22 04:54:38;;;;;;;4.73;1.67;;;4.30;89.40;;;;;;6194847;23;20213;-83
2022/02/22 04:57:06;;;;;;;5.77;1.80;;;4.30;89.30;;;;;;6180253;23;20285;-82
2022/02/22 04:59:34;;;;;;;6.43;1.70;;;4.30;89.80;;;;;;6192963;23;20179;-82
2022/02/22 05:02:02;;;;;;;7.40;2.10;;;4.40;88.60;;;;;;6193565;23;20258;-83
2022/02/22 05:04:28;;;;;;;6.03;1.60;;;4.40;88.60;;;;;;6192227;23;20178;-83
2022/02/22 05:06:55;;;;;;;6.57;1.80;;;4.40;88.60;;;;;;6193859;23;20217;-82
2022/02/22 05:09:22;;;;;;;8.53;2.17;;;4.30;88.50;;;;;;6197450;23;20177;-82
2022/02/22 05:11:49;;;;;;;7.80;1.97;;;4.30;88.50;;;;;;6197611;23;20670;-83
2022/02/22 05:14:16;;;;;;;5.47;1.80;;;4.30;88.60;;;;;;6197333;23;20619;-82
2022/02/22 05:16:44;;;;;;;8.13;1.60;;;4.40;88.40;;;;;;6196513;23;20202;-82
2022/02/22 05:19:11;;;;;;;4.03;1.53;;;4.40;88.60;;;;;;6197928;23;20253;-83
2022/02/22 05:21:38;;;;;;;5.30;1.60;;;4.40;88.60;;;;;;6197252;23;20277;-82
2022/02/22 05:24:06;;;;;;;6.37;1.70;;;4.30;88.50;;;;;;6195666;23;20230;-82
2022/02/22 05:26:33;;;;;;;5.90;2.10;;;4.30;88.50;;;;;;6193209;23;20173;-82
2022/02/22 05:29:00;;;;;;;4.63;1.73;;;4.30;88.90;;;;;;6195081;23;20245;-84
2022/02/22 05:31:27;;;;;;;4.73;1.70;;;4.10;91.80;;;;;;6200692;23;20198;-82
2022/02/22 05:33:56;;;;;;;3.23;1.50;;;3.70;93.50;;;;;;6196421;23;20210;-83
2022/02/22 05:36:23;;;;;;;5.10;1.77;;;3.50;94.70;;;;;;6197593;23;20175;-83
2022/02/22 05:38:50;;;;;;;4.10;1.70;;;3.40;94.70;;;;;;6196563;23;20206;-82
2022/02/22 05:41:18;;;;;;;4.10;1.50;;;3.10;94.70;;;;;;6199073;23;20174;-82
2022/02/22 05:43:47;;;;;;;6.70;1.77;;;3.10;95.60;;;;;;6198333;23;20258;-84
2022/02/22 05:46:14;;;;;;;4.67;1.70;;;3.10;95.20;;;;;;6197169;23;20185;-82
2022/02/22 05:48:41;;;;;;;4.90;1.67;;;3.00;95.10;;;;;;6196768;23;20262;-87
2022/02/22 05:51:09;;;;;;;7.17;1.70;;;3.00;95.50;;;;;;6197494;23;20182;-82
2022/02/22 05:53:37;;;;;;;7.60;1.90;;;3.00;94.90;;;;;;6198203;23;20241;-86
2022/02/22 05:56:05;;;;;;;7.13;1.67;;;2.90;94.60;;;;;;6200006;23;20229;-82
2022/02/22 05:58:32;;;;;;;4.80;1.60;;;2.80;94.60;;;;;;6196332;23;20907;-82
2022/02/22 06:00:59;;;;;;;7.13;1.97;;;2.90;95.00;;;;;;6196716;23;20226;-82
2022/02/22 06:03:26;;;;;;;7.90;1.90;;;2.90;94.50;;;;;;6195721;23;20542;-82
2022/02/22 06:05:53;;;;;;;6.23;1.50;;;2.80;94.60;;;;;;6197035;23;20740;-82
2022/02/22 06:08:22;;;;;;;4.67;1.90;;;2.70;94.60;;;;;;6198029;23;20226;-83
2022/02/22 06:10:49;;;;;;;4.50;1.83;;;2.70;94.60;;;;;;6199443;23;20171;-82
2022/02/22 06:13:17;;;;;;;9.23;1.87;;;2.70;94.60;;;;;;6200846;23;20237;-83
2022/02/22 06:15:48;;;;;;;4.83;1.30;;;2.70;94.60;;;;;;6198769;23;20548;-83
2022/02/22 06:18:16;;;;;;;4.07;1.60;;;2.70;94.20;;;;;;6198988;23;20203;-83
2022/02/22 06:20:44;;;;;;;5.17;1.73;;;2.70;93.70;;;;;;6200553;23;20167;-82
2022/02/22 06:23:11;;;;;;;6.67;2.07;;;2.70;93.40;;;;;;6197842;23;20217;-83
2022/02/22 06:25:40;;;;;;;12.03;2.43;;;2.80;93.10;;;;;;6198272;23;20185;-84
2022/02/22 06:28:07;;;;;;;9.93;2.07;;;2.80;92.60;;;;;;6199165;23;20233;-82
2022/02/22 06:30:34;;;;;;;7.07;1.60;;;2.90;92.40;;;;;;6200784;23;20177;-83
2022/02/22 06:33:08;;;;;;;6.00;1.83;;;3.00;92.30;;;;;;6197761;23;20230;-82
2022/02/22 06:35:37;;;;;;;5.80;1.50;;;3.00;92.00;;;;;;6170929;23;20230;-84
2022/02/22 06:38:04;;;;;;;5.63;1.77;;;3.20;91.90;;;;;;6198587;23;20282;-84
2022/02/22 06:40:31;;;;;;;6.30;1.83;;;3.30;91.80;;;;;;6198638;23;20211;-85
2022/02/22 06:42:59;;;;;;;7.97;2.00;;;3.40;91.80;;;;;;6196119;23;20256;-82
2022/02/22 06:45:26;;;;;;;8.13;2.03;;;3.50;91.90;;;;;;6195906;23;20266;-87
2022/02/22 06:47:53;;;;;;;4.87;1.80;;;3.50;91.60;;;;;;6195593;23;20213;-83
2022/02/22 06:50:22;;;;;;;5.20;1.70;;;3.40;91.90;;;;;;6197731;23;20174;-83
2022/02/22 06:52:50;;;;;;;6.07;2.00;;;3.30;92.00;;;;;;6198081;23;20250;-86
2022/02/22 06:55:17;;;;;;;7.20;1.73;;;3.40;92.20;;;;;;6199462;23;20198;-87
2022/02/22 06:57:49;;;;;;;8.27;1.90;;;3.40;92.10;;;;;;6198377;23;20250;-84
2022/02/22 07:00:23;;;;;;;9.53;2.67;;;3.40;92.20;;;;;;6195907;23;20169;-86
2022/02/22 07:02:50;;;;;;;7.10;1.73;;;3.30;92.30;;;;;;6194578;23;20249;-83
2022/02/22 07:05:19;;;;;;;6.50;2.23;;;3.30;92.60;;;;;;6197472;23;20170;-85
2022/02/22 07:07:47;;;;;;;5.57;1.90;;;3.40;92.70;;;;;;6169366;23;20210;-85
2022/02/22 07:10:14;;;;;;;4.40;2.10;;;3.60;92.40;;;;;;6194692;23;20198;-87
2022/02/22 07:12:43;;;;;;;7.23;1.93;;;3.60;92.10;;;;;;6194720;23;20654;-87
2022/02/22 07:15:12;;;;;;;7.53;2.10;;;3.60;92.10;;;;;;6198354;23;20171;-84
2022/02/22 07:17:55;;;;;;;5.17;1.90;;;3.60;91.80;;;;;;6172468;23;20264;-90
2022/02/22 07:20:25;;;;;;;5.13;1.80;;;3.60;92.00;;;;;;6199114;23;20190;-90
2022/02/22 07:23:01;;;;;;;6.43;2.03;;;3.60;91.60;;;;;;6186220;23;20210;-89
2022/02/22 07:25:31;;;;;;;6.23;1.90;;;3.60;91.50;;;;;;6196598;23;20190;-84
2022/02/22 07:28:01;;;;;;;7.50;1.93;;;3.60;91.40;;;;;;6196114;23;20234;-85
2022/02/22 07:30:31;;;;;;;4.80;1.90;;;3.60;91.50;;;;;;6197353;23;20218;-85
2022/02/22 07:33:04;;;;;;;11.10;2.23;;;3.60;91.50;;;;;;6194619;23;20258;-85
2022/02/22 07:35:33;;;;;;;8.80;2.00;;;3.70;90.90;;;;;;6194817;23;20706;-86
2022/02/22 07:38:01;;;;;;;8.43;2.27;;;3.80;90.90;;;;;;6170274;23;20226;-88
2022/02/22 07:40:29;;;;;;;7.67;2.20;;;4.30;88.50;;;;;;6193609;23;20628;-87
2022/02/22 07:42:56;;;;;;;8.57;2.20;;;4.70;88.80;;;;;;6188229;23;20214;-85
2022/02/22 07:45:31;;;;;;;8.70;2.20;;;5.30;80.70;;;;;;6188115;23;20174;-85
2022/02/22 07:47:59;;;;;;;10.33;2.03;;;5.70;78.30;;;;;;6187079;23;20741;-82
2022/02/22 07:50:26;;;;;;;3.67;1.90;;;5.70;76.10;;;;;;6190159;23;20171;-85
2022/02/22 07:52:53;;;;;;;5.83;1.97;;;5.50;77.80;;;;;;6190589;23;20441;-84
2022/02/22 07:55:21;;;;;;;6.60;2.03;;;5.70;77.20;;;;;;6194884;23;20175;-82
2022/02/22 07:57:47;;;;;;;6.03;1.90;;;5.60;77.60;;;;;;6200029;23;20202;-84
2022/02/22 08:00:16;;;;;;;7.03;2.00;;;5.50;78.40;;;;;;6174937;23;20630;-83
2022/02/22 08:02:44;;;;;;;4.83;1.77;;;5.40;79.00;;;;;;6195544;23;20599;-85
2022/02/22 08:05:12;;;;;;;6.63;2.03;;;5.50;79.10;;;;;;6195858;23;20194;-87
2022/02/22 08:07:39;;;;;;;7.40;2.17;;;5.70;79.10;;;;;;6195281;23;20202;-84
2022/02/22 08:10:09;;;;;;;4.07;1.73;;;5.80;76.90;;;;;;6170666;23;20174;-85
2022/02/22 08:12:36;;;;;;;5.20;2.00;;;5.70;76.60;;;;;;6196095;23;20250;-84
2022/02/22 08:15:04;;;;;;;5.70;1.70;;;5.50;77.70;;;;;;6197168;23;20171;-84
2022/02/22 08:17:31;;;;;;;6.63;1.67;;;5.40;77.90;;;;;;6199544;23;20259;-84
2022/02/22 08:30:21;;;;;;;5.03;2.10;;;5.50;73.70;;;;;;6196179;23;20159;-84
2022/02/22 08:32:48;;;;;;;4.67;1.90;;;5.80;70.60;;;;;;6194534;23;20202;-82
2022/02/22 08:38:37;;;;;;;9.00;2.13;;;6.20;67.80;;;;;;6196657;23;20217;-84
2022/02/22 08:41:05;;;;;;;6.57;1.77;;;6.20;65.60;;;;;;6195669;23;20206;-83
2022/02/22 08:43:32;;;;;;;7.03;1.80;;;6.20;65.40;;;;;;6194335;23;20207;-82
2022/02/22 08:46:01;;;;;;;4.53;1.60;;;6.10;63.70;;;;;;6195201;23;20228;-82
2022/02/22 08:48:29;;;;;;;3.83;1.57;;;6.10;61.70;;;;;;6194684;23;20210;-83
2022/02/22 08:50:56;;;;;;;6.83;1.87;;;6.20;63.30;;;;;;6196765;23;20179;-85
2022/02/22 08:53:23;;;;;;;4.03;1.97;;;6.40;60.00;;;;;;6180555;23;20311;-85
2022/02/22 08:55:49;;;;;;;4.00;1.80;;;6.50;58.90;;;;;;6195368;23;20178;-82
2022/02/22 08:58:16;;;;;;;6.43;1.97;;;6.30;58.50;;;;;;6195157;23;20229;-84
2022/02/22 09:00:43;;;;;;;8.60;1.80;;;6.40;60.30;;;;;;6196063;23;20645;-83
2022/02/22 09:03:14;;;;;;;8.03;1.93;;;6.70;59.00;;;;;;6196011;23;20233;-82
2022/02/22 09:05:41;;;;;;;8.10;1.80;;;6.70;59.20;;;;;;6197562;23;20163;-84
2022/02/22 09:08:08;;;;;;;7.07;2.10;;;7.00;57.70;;;;;;6193616;23;20285;-84
2022/02/22 09:10:35;;;;;;;6.17;1.80;;;6.60;54.10;;;;;;6196086;23;20186;-84
2022/02/22 09:13:02;;;;;;;6.87;2.17;;;6.60;56.60;;;;;;6195626;23;20254;-84
2022/02/22 09:15:32;;;;;;;6.47;1.57;;;6.60;57.40;;;;;;6194323;23;20175;-84
2022/02/22 09:18:00;;;;;;;6.23;1.70;;;6.50;58.50;;;;;;6195706;23;20213;-84
2022/02/22 09:20:32;;;;;;;4.43;1.60;;;6.20;58.20;;;;;;6197014;23;20179;-83
2022/02/22 09:23:07;;;;;;;5.47;1.43;;;5.70;62.60;;;;;;6195953;23;20275;-85
2022/02/22 09:25:35;;;;;;;5.43;1.60;;;5.10;69.80;;;;;;6194917;23;20194;-85
2022/02/22 09:28:04;;;;;;;5.17;1.93;;;4.80;72.10;;;;;;6194644;23;20209;-85
2022/02/22 09:30:33;;;;;;;5.40;1.83;;;4.60;76.20;;;;;;6195025;23;20225;-85
2022/02/22 09:33:10;;;;;;;8.00;1.90;;;4.30;79.90;;;;;;6194039;23;20252;-85
2022/02/22 09:35:38;;;;;;;5.23;1.77;;;4.30;82.90;;;;;;6194256;23;20169;-85
2022/02/22 09:38:05;;;;;;;4.07;1.60;;;4.50;86.20;;;;;;6193838;23;20571;-85
2022/02/22 09:40:33;;;;;;;4.70;1.73;;;4.70;87.20;;;;;;6194998;23;20174;-83
2022/02/22 09:43:01;;;;;;;4.83;2.23;;;5.00;85.10;;;;;;6195353;23;20218;-87
2022/02/22 09:45:31;;;;;;;5.40;1.60;;;5.50;83.60;;;;;;6196309;23;20198;-84
2022/02/22 09:48:04;;;;;;;4.03;1.80;;;6.70;77.40;;;;;;6174576;23;20225;-85
2022/02/22 09:50:32;;;;;;;4.85;2.00;;;8.20;59.10;;;;;;6139056;23;20238;-87
2022/02/22 09:53:08;;;;;;;5.38;2.00;;;8.60;52.50;;;;;;6139048;23;20231;-88
2022/02/22 09:55:35;;;;;;;6.80;1.70;;;8.40;51.90;;;;;;6165183;23;20167;-87
2022/02/22 09:58:02;;;;;;;5.53;1.85;;;8.20;53.50;;;;;;6165378;23;20234;-87
2022/02/22 10:00:41;;;;;;;8.13;2.38;;;7.60;54.90;;;;;;6166511;23;20190;-87
2022/02/22 10:03:17;;;;;;;5.63;1.83;;;7.10;56.30;;;;;;6164768;23;20282;-86
2022/02/22 10:05:53;;;;;;;5.82;2.00;;;6.80;57.10;;;;;;6165882;23;20160;-82
2022/02/22 10:08:27;;;;;;;4.83;1.70;;;6.20;61.30;;;;;;6165902;23;20225;-85
2022/02/22 10:11:20;;;;;;;7.13;1.93;;;6.30;64.90;;;;;;6170031;23;20159;-84
2022/02/22 10:13:51;;;;;;;6.45;2.08;;;6.80;60.90;;;;;;6169876;23;20230;-84
2022/02/22 10:16:22;;;;;;;7.20;2.13;;;8.20;53.20;;;;;;6172026;23;20174;-86
2022/02/22 10:18:50;;;;;;;4.25;1.70;;;9.10;47.60;;;;;;6165678;23;20278;-87
2022/02/22 10:21:47;;;;;;;5.70;1.92;;;9.90;41.10;;;;;;6167477;23;20215;-88
2022/02/22 10:24:18;;;;;;;8.23;1.80;;;9.60;39.60;;;;;;6165508;23;20198;-88
2022/02/22 10:26:45;;;;;;;8.05;1.92;;;9.10;41.70;;;;;;6164481;23;20238;-88
2022/02/22 10:29:32;;;;;;;5.55;1.70;;;9.00;44.20;;;;;;6165761;23;20247;-86
2022/02/22 10:32:09;;;;;;;8.52;2.20;;;9.20;40.90;;;;;;6165148;23;20247;-87
2022/02/22 10:34:37;;;;;;;5.20;2.00;;;9.10;39.10;;;;;;6165256;23;20228;-86
2022/02/22 10:37:38;;;;;;;5.38;1.80;;;8.90;39.90;;;;;;6166369;23;25933;-86
2022/02/22 10:40:10;;;;;;;3.70;1.85;;;8.90;37.40;;;;;;6164228;23;20258;-87
2022/02/22 10:42:37;;;;;;;4.75;2.10;;;9.20;35.60;;;;;;6156708;23;20202;-89
2022/02/22 10:48:31;;;;;;;10.77;1.92;;;10.40;32.60;;;;;;6173807;23;20221;-87
2022/02/22 10:51:44;;;;;;;5.22;1.80;;;11.20;29.00;;;;;;6200087;23;20185;-87
2022/02/22 10:54:18;;;;;;;6.13;1.83;;;10.90;29.60;;;;;;6221549;23;20181;-86
2022/02/22 10:56:47;;;;;;;3.83;1.50;;;10.60;28.70;;;;;;6229111;23;20166;-88
2022/02/22 10:59:14;;;;;;;4.55;1.80;;;10.10;29.50;;;;;;6227208;23;20197;-87
2022/02/22 11:01:42;;;;;;;4.95;1.67;;;10.20;28.60;;;;;;6226386;23;20222;-87
2022/02/22 11:04:11;;;;;;;4.05;1.85;;;10.30;30.00;;;;;;6224915;23;20252;-87
2022/02/22 11:06:38;;;;;;;5.70;1.88;;;9.90;30.00;;;;;;6225057;23;20170;-86
2022/02/22 11:09:08;;;;;;;4.68;2.08;;;9.60;32.50;;;;;;6223688;23;20333;-87
2022/02/22 11:11:51;;;;;;;4.18;1.60;;;9.70;34.10;;;;;;6198370;23;20508;-88
2022/02/22 11:14:25;;;;;;;6.95;1.80;;;9.90;33.30;;;;;;6219157;23;20665;-92
2022/02/22 11:17:03;;;;;;;5.57;1.85;;;9.40;34.60;;;;;;6221857;23;20208;-89
2022/02/22 11:19:36;;;;;;;5.97;1.90;;;9.00;35.10;;;;;;6225457;23;20165;-89
2022/02/22 11:22:11;;;;;;;3.55;1.65;;;8.80;36.20;;;;;;6223634;23;20757;-90
2022/02/22 11:24:44;;;;;;;6.60;1.90;;;8.80;38.00;;;;;;6224355;23;20246;-92
2022/02/22 11:30:42;;;;;;;3.88;1.60;;;8.80;35.20;;;;;;6224087;23;20141;-87
2022/02/22 11:33:13;;;;;;;3.35;1.65;;;8.40;35.40;;;;;;6223019;23;20327;-88
2022/02/22 11:35:53;;;;;;;3.60;1.40;;;8.20;37.00;;;;;;6223611;23;20186;-84
2022/02/22 11:38:21;;;;;;;5.00;1.95;;;8.40;36.60;;;;;;6214497;23;20201;-87
2022/02/22 11:41:17;;;;;;;2.00;1.40;;;8.50;36.00;;;;;;6227674;23;20181;-86
2022/02/22 11:43:56;;;;;;;4.63;1.52;;;8.70;35.80;;;;;;6229808;23;20841;-86
2022/02/22 11:46:40;;;;;;;6.55;1.75;;;8.70;35.30;;;;;;6226562;23;20201;-85
2022/02/22 11:49:09;;;;;;;3.15;1.40;;;8.20;35.90;;;;;;6209047;23;20237;-85
2022/02/22 11:51:46;;;;;;;3.92;1.60;;;8.20;37.00;;;;;;6175103;23;20183;-86
2022/02/22 11:54:18;;;;;;;4.15;1.60;;;8.30;36.40;;;;;;6197912;23;20265;-89
2022/02/22 11:56:45;;;;;;;4.43;1.60;;;8.40;35.60;;;;;;6195614;23;20177;-83
2022/02/22 11:59:17;;;;;;;8.38;1.50;;;8.20;35.80;;;;;;6195556;23;20238;-80
2022/02/22 12:01:48;;;;;;;6.43;1.55;;;8.00;35.90;;;;;;6192029;23;20198;-83
2022/02/22 12:04:27;;;;;;;6.50;1.63;;;7.90;37.50;;;;;;6195577;23;20269;-81
2022/02/22 12:06:56;;;;;;;5.57;1.65;;;7.80;37.00;;;;;;6180174;23;20225;-85
2022/02/22 12:09:57;;;;;;;5.67;1.70;;;7.80;38.30;;;;;;6194703;23;20171;-84
2022/02/22 12:13:07;;;;;;;5.30;1.50;;;7.80;39.20;;;;;;6192858;23;20202;-84
2022/02/22 12:15:44;;;;;;;4.50;1.80;;;8.00;42.10;;;;;;6199716;23;20167;-85
2022/02/22 12:18:17;;;;;;;4.07;1.70;;;7.90;52.00;;;;;;6194870;23;20205;-82
2022/02/22 12:20:46;;;;;;;2.93;1.73;;;7.50;72.30;;;;;;6197367;23;20167;-83
2022/02/22 12:23:17;;;;;;;5.10;2.00;;;7.30;81.90;;;;;;6179654;23;20287;-84
2022/02/22 12:26:06;;;;;;;4.87;1.80;;;7.30;82.70;;;;;;6198024;23;20615;-84
2022/02/22 12:28:42;;;;;;;1.93;1.47;;;7.20;81.90;;;;;;6197487;23;20202;-83
2022/02/22 12:31:09;;;;;;;5.23;1.80;;;7.30;82.00;;;;;;6198207;23;20186;-83
2022/02/22 12:37:05;;;;;;;4.57;1.53;;;7.40;78.20;;;;;;6199332;23;20146;-82
2022/02/22 12:43:07;;;;;;;3.67;1.83;;;7.60;75.90;;;;;;6207653;23;20170;-82
2022/02/22 12:49:29;;;;;;;5.38;1.80;;;8.40;65.00;;;;;;6197338;23;20217;-86
2022/02/22 12:55:17;;;;;;;6.38;1.67;;;8.40;61.20;;;;;;6200231;23;20178;-84
2022/02/22 12:57:53;;;;;;;6.63;1.83;;;8.60;56.60;;;;;;6173953;23;20190;-90
2022/02/22 13:00:21;;;;;;;3.00;1.45;;;8.60;55.80;;;;;;6199751;23;20489;-83
2022/02/22 13:02:49;;;;;;;3.47;1.40;;;8.60;47.40;;;;;;6194964;23;20166;-85
2022/02/22 13:05:17;;;;;;;3.78;1.60;;;8.30;50.20;;;;;;6193678;23;20509;-85
2022/02/22 13:07:49;;;;;;;5.15;1.88;;;8.30;51.80;;;;;;6193255;23;20213;-85
2022/02/22 13:10:17;;;;;;;4.63;1.52;;;8.40;47.80;;;;;;6194520;23;20159;-85
2022/02/22 13:13:01;;;;;;;5.50;1.70;;;8.30;48.10;;;;;;6195591;23;20242;-85
2022/02/22 13:15:28;;;;;;;3.60;1.40;;;8.40;47.00;;;;;;6196462;23;20198;-84
2022/02/22 13:17:55;;;;;;;4.35;1.70;;;8.30;46.90;;;;;;6195852;23;20163;-84
2022/02/22 13:20:24;;;;;;;5.25;1.60;;;8.50;47.10;;;;;;6194975;23;20163;-84
2022/02/22 13:22:52;;;;;;;4.85;1.40;;;8.70;48.40;;;;;;6193972;23;20212;-85
2022/02/22 13:25:19;;;;;;;4.25;1.40;;;8.80;47.40;;;;;;6194214;23;20245;-85
2022/02/22 13:27:55;;;;;;;4.47;1.60;;;9.00;49.60;;;;;;6193699;23;20582;-87
2022/02/22 13:30:22;;;;;;;1.98;1.27;;;8.90;50.90;;;;;;6193705;23;20186;-85
2022/02/22 13:32:51;;;;;;;4.50;1.80;;;8.70;51.60;;;;;;6192656;23;20211;-84
2022/02/22 13:36:06;;;;;;;4.20;1.40;;;8.60;53.50;;;;;;6196231;23;20163;-81
2022/02/22 13:38:34;;;;;;;2.60;1.23;;;8.20;59.20;;;;;;6194470;23;20207;-83
2022/02/22 13:41:11;;;;;;;1.75;1.30;;;8.00;65.80;;;;;;6191389;23;20174;-83
2022/02/22 13:43:38;;;;;;;2.88;1.40;;;7.80;71.10;;;;;;6195236;23;20281;-84
2022/02/22 13:46:09;;;;;;;2.45;1.30;;;7.90;72.80;;;;;;6193137;23;20217;-84